Time;durP1;ratioP1;P1;durP2;ratioP2;P2;SDS_P1;SDS_P2;PMS_P1;PMS_P2;Temp;Humidity;BMP_temperature;BMP_pressure;BME280_temperature;BME280_humidity;BME280_pressure;Samples;Min_cycle;Max_cycle;Signal;HPM_P1;HPM_P2
2023/01/27 00:00:54;;;;;;;2.78;2.58;;;;;;;;;;5006940;28;20169;-49
2023/01/27 00:03:20;;;;;;;4.85;3.47;;;;;;;;;;5009835;28;20599;-49
2023/01/27 00:05:46;;;;;;;4.68;3.28;;;;;;;;;;5009441;28;20463;-49
2023/01/27 00:08:13;;;;;;;3.40;3.10;;;;;;;;;;5013946;28;20184;-49
2023/01/27 00:10:39;;;;;;;5.28;3.17;;;;;;;;;;5013184;28;20185;-49
2023/01/27 00:15:49;;;;;;;3.15;2.83;;;;;;;;;;5010375;28;20250;-49
2023/01/27 00:18:15;;;;;;;3.53;3.22;;;;;;;;;;5016246;28;20181;-49
2023/01/27 00:26:13;;;;;;;3.10;2.80;;;;;;;;;;5016987;28;20215;-49
2023/01/27 00:28:40;;;;;;;3.55;2.92;;;;;;;;;;5005388;28;20231;-49
2023/01/27 00:33:52;;;;;;;3.20;2.90;;;;;;;;;;5009680;28;20343;-49
2023/01/27 00:36:18;;;;;;;2.80;2.45;;;;;;;;;;5013957;28;20263;-49
2023/01/27 00:38:44;;;;;;;4.80;3.42;;;;;;;;;;5010662;28;20303;-49
2023/01/27 00:41:19;;;;;;;3.35;3.00;;;;;;;;;;5010687;28;20189;-49
2023/01/27 00:43:45;;;;;;;4.25;3.30;;;;;;;;;;5009948;28;20452;-49
2023/01/27 00:46:11;;;;;;;3.40;3.10;;;;;;;;;;5010767;28;20200;-49
2023/01/27 00:48:37;;;;;;;3.33;2.88;;;;;;;;;;5016007;28;20544;-49
2023/01/27 00:51:03;;;;;;;2.92;2.55;;;;;;;;;;5012344;28;20185;-49
2023/01/27 00:53:30;;;;;;;3.40;3.10;;;;;;;;;;5010320;28;20216;-49
2023/01/27 00:55:59;;;;;;;3.63;3.20;;;;;;;;;;5001859;28;20177;-49
2023/01/27 00:58:25;;;;;;;5.05;3.70;;;;;;;;;;5012614;28;20196;-49
2023/01/27 01:01:00;;;;;;;3.58;2.90;;;;;;;;;;5007872;28;20185;-49
2023/01/27 01:03:30;;;;;;;3.20;2.80;;;;;;;;;;5012042;28;20206;-49
2023/01/27 01:05:56;;;;;;;4.03;3.22;;;;;;;;;;5013482;28;20181;-49
2023/01/27 01:08:22;;;;;;;4.07;3.20;;;;;;;;;;5009397;28;20188;-49
2023/01/27 01:10:47;;;;;;;4.28;3.22;;;;;;;;;;5008768;28;20485;-49
2023/01/27 01:13:13;;;;;;;3.95;3.30;;;;;;;;;;5006330;28;20209;-49
2023/01/27 01:15:40;;;;;;;3.67;3.00;;;;;;;;;;5014068;28;20180;-49
2023/01/27 01:18:06;;;;;;;3.78;3.30;;;;;;;;;;5010547;28;20251;-49
2023/01/27 01:20:37;;;;;;;3.88;3.20;;;;;;;;;;5014996;28;20188;-49
2023/01/27 01:23:03;;;;;;;3.78;3.20;;;;;;;;;;5008076;28;20225;-49
2023/01/27 01:25:28;;;;;;;3.47;3.00;;;;;;;;;;5009013;28;20211;-49
2023/01/27 01:27:54;;;;;;;4.07;3.30;;;;;;;;;;5002448;28;20197;-49
2023/01/27 01:30:20;;;;;;;4.53;3.42;;;;;;;;;;5010726;28;20180;-49
2023/01/27 01:32:47;;;;;;;3.95;3.50;;;;;;;;;;5009878;28;20630;-49
2023/01/27 01:35:13;;;;;;;3.67;3.10;;;;;;;;;;5012627;28;20204;-49
2023/01/27 01:37:39;;;;;;;3.00;2.70;;;;;;;;;;5001604;28;20188;-49
2023/01/27 01:40:07;;;;;;;4.35;3.40;;;;;;;;;;5012855;28;20187;-49
2023/01/27 01:42:45;;;;;;;3.88;3.25;;;;;;;;;;5009977;28;20183;-49
2023/01/27 01:45:38;;;;;;;3.83;3.13;;;;;;;;;;5014945;28;20187;-49
2023/01/27 01:48:21;;;;;;;4.20;3.42;;;;;;;;;;5008369;28;20283;-49
2023/01/27 01:50:49;;;;;;;3.83;3.08;;;;;;;;;;5007767;28;20188;-49
2023/01/27 01:53:16;;;;;;;3.40;3.10;;;;;;;;;;5008958;28;20216;-49
2023/01/27 01:55:42;;;;;;;3.83;3.30;;;;;;;;;;5013879;28;20212;-49
2023/01/27 01:58:09;;;;;;;3.70;3.13;;;;;;;;;;5011481;28;20203;-49
2023/01/27 02:00:35;;;;;;;3.33;2.70;;;;;;;;;;5000025;28;20204;-49
2023/01/27 02:03:03;;;;;;;3.30;2.95;;;;;;;;;;4997938;28;20181;-49
2023/01/27 02:05:33;;;;;;;3.38;2.92;;;;;;;;;;5013613;28;20607;-50
2023/01/27 02:07:59;;;;;;;4.05;3.10;;;;;;;;;;5008427;28;20267;-49
2023/01/27 02:10:25;;;;;;;3.05;2.75;;;;;;;;;;5010017;28;20880;-49
2023/01/27 02:12:51;;;;;;;3.75;3.38;;;;;;;;;;5007267;28;20200;-49
2023/01/27 02:15:17;;;;;;;3.47;2.95;;;;;;;;;;5007182;28;20191;-49
2023/01/27 02:17:43;;;;;;;3.35;3.03;;;;;;;;;;5010375;28;20165;-49
2023/01/27 02:20:27;;;;;;;4.57;3.28;;;;;;;;;;5003969;28;20220;-49
2023/01/27 02:22:53;;;;;;;3.58;3.05;;;;;;;;;;5013830;28;20512;-49
2023/01/27 02:25:26;;;;;;;3.70;2.92;;;;;;;;;;5013631;28;20280;-49
2023/01/27 02:27:51;;;;;;;4.13;3.15;;;;;;;;;;5001724;28;20188;-49
2023/01/27 02:30:18;;;;;;;3.40;2.92;;;;;;;;;;5013397;28;20234;-49
2023/01/27 02:32:44;;;;;;;3.92;3.25;;;;;;;;;;5011751;28;20510;-49
2023/01/27 02:35:13;;;;;;;4.05;3.10;;;;;;;;;;5014715;28;20208;-49
2023/01/27 02:37:39;;;;;;;4.00;2.95;;;;;;;;;;5008708;28;20185;-49
2023/01/27 02:40:06;;;;;;;3.97;3.08;;;;;;;;;;5014851;28;20271;-49
2023/01/27 02:42:32;;;;;;;3.72;3.10;;;;;;;;;;5013634;28;20745;-49
2023/01/27 02:44:58;;;;;;;4.30;3.30;;;;;;;;;;5008390;28;20319;-49
2023/01/27 02:47:24;;;;;;;3.97;2.67;;;;;;;;;;5008085;28;20204;-49
2023/01/27 02:49:50;;;;;;;3.67;2.85;;;;;;;;;;5011292;28;20191;-49
2023/01/27 02:52:16;;;;;;;3.60;2.95;;;;;;;;;;5012749;28;20244;-49
2023/01/27 02:54:41;;;;;;;4.35;3.47;;;;;;;;;;5012514;28;20432;-50
2023/01/27 02:57:07;;;;;;;3.97;3.22;;;;;;;;;;5008219;28;20185;-49
2023/01/27 02:59:33;;;;;;;3.50;3.20;;;;;;;;;;5012837;28;20238;-49
2023/01/27 03:01:59;;;;;;;3.88;3.00;;;;;;;;;;5005967;28;20201;-49
2023/01/27 03:04:25;;;;;;;3.42;2.88;;;;;;;;;;5012127;28;20184;-49
2023/01/27 03:06:51;;;;;;;4.22;3.15;;;;;;;;;;5008485;28;20204;-49
2023/01/27 03:09:17;;;;;;;4.03;3.38;;;;;;;;;;5013179;28;20263;-49
2023/01/27 03:19:56;;;;;;;3.83;3.35;;;;;;;;;;5012455;28;20211;-49
2023/01/27 03:22:22;;;;;;;3.33;2.83;;;;;;;;;;5011271;28;20192;-49
2023/01/27 03:24:48;;;;;;;3.70;2.85;;;;;;;;;;5004438;28;20274;-49
2023/01/27 03:27:14;;;;;;;3.33;2.97;;;;;;;;;;5015231;28;20200;-49
2023/01/27 03:29:55;;;;;;;3.60;2.88;;;;;;;;;;5012255;28;20246;-49
2023/01/27 03:32:31;;;;;;;5.32;3.30;;;;;;;;;;5009555;28;20235;-49
2023/01/27 03:34:57;;;;;;;3.20;2.90;;;;;;;;;;5016225;28;20258;-49
2023/01/27 03:48:30;;;;;;;3.95;3.28;;;;;;;;;;5015853;28;20207;-49
2023/01/27 03:50:57;;;;;;;3.67;3.10;;;;;;;;;;5017010;28;20227;-49
2023/01/27 03:53:23;;;;;;;4.18;2.88;;;;;;;;;;5012743;28;20579;-49
2023/01/27 03:55:49;;;;;;;3.15;2.85;;;;;;;;;;5005768;28;20244;-49
2023/01/27 03:58:20;;;;;;;4.25;3.05;;;;;;;;;;5012605;28;20187;-49
2023/01/27 04:00:50;;;;;;;3.22;2.88;;;;;;;;;;5004418;28;20226;-49
2023/01/27 04:08:49;;;;;;;4.00;3.00;;;;;;;;;;4998567;28;20662;-49
2023/01/27 04:14:01;;;;;;;3.05;2.75;;;;;;;;;;5011249;28;20196;-49
2023/01/27 04:16:29;;;;;;;3.60;2.95;;;;;;;;;;5012526;28;20177;-49
2023/01/27 04:18:54;;;;;;;3.50;2.97;;;;;;;;;;5014787;28;20169;-49
2023/01/27 04:21:20;;;;;;;3.10;2.70;;;;;;;;;;5007771;28;20199;-50
2023/01/27 04:23:46;;;;;;;3.10;2.80;;;;;;;;;;5016152;28;20177;-49
2023/01/27 04:26:12;;;;;;;3.47;2.97;;;;;;;;;;5008550;28;20200;-49
2023/01/27 04:28:38;;;;;;;3.53;2.63;;;;;;;;;;5017161;28;20187;-49
2023/01/27 04:31:04;;;;;;;3.03;2.50;;;;;;;;;;5013352;28;20294;-49
2023/01/27 04:33:30;;;;;;;3.78;3.10;;;;;;;;;;5013865;28;20240;-49
2023/01/27 04:35:56;;;;;;;2.92;2.70;;;;;;;;;;5023566;28;20192;-49
2023/01/27 04:38:22;;;;;;;3.40;2.70;;;;;;;;;;5010183;28;20207;-49
2023/01/27 04:40:48;;;;;;;3.13;2.63;;;;;;;;;;5015682;28;20176;-50
2023/01/27 04:43:14;;;;;;;3.13;2.83;;;;;;;;;;5010246;28;20228;-50
2023/01/27 04:45:40;;;;;;;3.20;2.42;;;;;;;;;;5015580;28;20193;-49
2023/01/27 04:48:06;;;;;;;4.35;2.83;;;;;;;;;;5010018;28;20257;-49
2023/01/27 04:50:32;;;;;;;3.63;2.60;;;;;;;;;;5016410;28;20809;-49
2023/01/27 04:52:58;;;;;;;3.25;2.90;;;;;;;;;;5010165;28;20285;-49
2023/01/27 04:55:24;;;;;;;4.05;2.45;;;;;;;;;;5014905;28;20599;-49
2023/01/27 04:57:50;;;;;;;3.92;2.80;;;;;;;;;;5008767;28;20244;-49
2023/01/27 05:00:16;;;;;;;4.38;2.80;;;;;;;;;;5015108;28;20198;-49
2023/01/27 05:02:42;;;;;;;4.85;2.45;;;;;;;;;;5006552;28;20215;-49
2023/01/27 05:05:08;;;;;;;3.55;2.63;;;;;;;;;;5014281;28;20193;-49
2023/01/27 05:07:34;;;;;;;4.28;2.15;;;;;;;;;;5013754;28;20223;-49
2023/01/27 05:10:00;;;;;;;2.65;2.22;;;;;;;;;;5015121;28;20224;-49
2023/01/27 05:12:26;;;;;;;5.40;2.72;;;;;;;;;;5012009;28;20196;-49
2023/01/27 05:14:52;;;;;;;4.68;2.58;;;;;;;;;;5011070;28;20589;-49
2023/01/27 05:17:18;;;;;;;5.53;2.47;;;;;;;;;;5013363;28;20212;-47
2023/01/27 05:19:44;;;;;;;5.22;2.60;;;;;;;;;;5008228;28;20445;-49
2023/01/27 05:22:10;;;;;;;14.10;3.17;;;;;;;;;;5011327;28;20184;-49
2023/01/27 05:24:37;;;;;;;6.40;2.97;;;;;;;;;;5011584;28;20214;-49
2023/01/27 05:27:03;;;;;;;6.63;2.88;;;;;;;;;;5009801;28;20197;-49
2023/01/27 05:29:29;;;;;;;11.93;2.95;;;;;;;;;;5008127;28;20271;-49
2023/01/27 05:31:54;;;;;;;7.07;2.97;;;;;;;;;;5012122;28;20351;-49
2023/01/27 05:34:21;;;;;;;5.57;2.83;;;;;;;;;;5007621;28;20209;-49
2023/01/27 05:36:47;;;;;;;7.53;2.40;;;;;;;;;;5015106;28;20208;-49
2023/01/27 05:39:13;;;;;;;4.95;2.60;;;;;;;;;;5015660;28;20184;-49
2023/01/27 05:41:39;;;;;;;5.78;2.45;;;;;;;;;;5014549;28;20231;-49
2023/01/27 05:44:05;;;;;;;4.53;2.58;;;;;;;;;;5007725;28;20200;-49
2023/01/27 05:46:32;;;;;;;5.00;2.53;;;;;;;;;;5013707;28;20191;-49
2023/01/27 05:49:03;;;;;;;9.27;2.75;;;;;;;;;;5005749;28;20187;-49
2023/01/27 05:51:30;;;;;;;7.15;3.10;;;;;;;;;;5008994;28;20191;-49
2023/01/27 05:53:55;;;;;;;5.50;2.85;;;;;;;;;;5010334;28;20545;-49
2023/01/27 05:56:22;;;;;;;4.35;2.60;;;;;;;;;;5006869;28;20239;-49
2023/01/27 05:58:48;;;;;;;4.25;2.60;;;;;;;;;;5012173;28;20184;-49
2023/01/27 06:01:15;;;;;;;5.20;2.50;;;;;;;;;;5003606;28;20185;-49
2023/01/27 06:03:42;;;;;;;6.20;2.70;;;;;;;;;;5014682;28;20184;-49
2023/01/27 06:06:08;;;;;;;9.18;3.25;;;;;;;;;;5008231;28;20275;-49
2023/01/27 06:08:34;;;;;;;3.90;2.55;;;;;;;;;;5011253;28;20658;-49
2023/01/27 06:11:00;;;;;;;7.82;2.65;;;;;;;;;;5014728;28;20543;-49
2023/01/27 06:13:26;;;;;;;4.95;2.45;;;;;;;;;;5011027;28;20298;-49
2023/01/27 06:15:54;;;;;;;5.40;2.45;;;;;;;;;;5003225;28;20579;-49
2023/01/27 06:18:21;;;;;;;5.03;2.67;;;;;;;;;;5008816;28;20192;-49
2023/01/27 06:20:47;;;;;;;5.28;2.40;;;;;;;;;;5011887;28;20191;-49
2023/01/27 06:23:14;;;;;;;8.65;2.85;;;;;;;;;;5008157;28;20266;-49
2023/01/27 06:25:42;;;;;;;5.38;2.55;;;;;;;;;;5006485;28;20438;-49
2023/01/27 06:28:08;;;;;;;4.55;2.40;;;;;;;;;;5014239;28;20476;-49
2023/01/27 06:30:35;;;;;;;3.63;2.40;;;;;;;;;;5014130;28;20464;-49
2023/01/27 06:33:01;;;;;;;2.53;2.30;;;;;;;;;;5013336;28;20224;-50
2023/01/27 06:35:27;;;;;;;6.13;2.30;;;;;;;;;;5012694;28;20183;-50
2023/01/27 06:37:53;;;;;;;3.95;2.47;;;;;;;;;;5012753;28;20180;-49
2023/01/27 06:40:19;;;;;;;3.20;2.58;;;;;;;;;;5010325;28;20189;-49
2023/01/27 06:42:45;;;;;;;3.50;1.98;;;;;;;;;;5012428;28;20267;-49
2023/01/27 06:45:12;;;;;;;5.55;2.45;;;;;;;;;;5006514;28;20695;-49
2023/01/27 06:47:39;;;;;;;2.65;2.40;;;;;;;;;;5010434;28;20267;-49
2023/01/27 06:50:05;;;;;;;4.47;2.40;;;;;;;;;;5008193;28;20242;-49
2023/01/27 06:52:31;;;;;;;5.15;2.55;;;;;;;;;;5012694;28;20219;-49
2023/01/27 06:54:57;;;;;;;4.47;2.15;;;;;;;;;;5008066;28;20185;-49
2023/01/27 06:57:23;;;;;;;3.28;2.35;;;;;;;;;;5013791;28;20272;-49
2023/01/27 06:59:49;;;;;;;2.35;1.92;;;;;;;;;;5006319;28;20208;-49
2023/01/27 07:02:15;;;;;;;3.05;2.30;;;;;;;;;;5017243;28;20193;-49
2023/01/27 07:04:41;;;;;;;2.47;2.22;;;;;;;;;;5016889;28;20199;-49
2023/01/27 07:07:07;;;;;;;4.75;2.50;;;;;;;;;;5010767;28;20188;-49
2023/01/27 07:09:33;;;;;;;3.75;2.40;;;;;;;;;;5012232;28;20203;-49
2023/01/27 07:11:59;;;;;;;3.38;2.42;;;;;;;;;;5010434;28;20220;-49
2023/01/27 07:14:25;;;;;;;2.67;2.10;;;;;;;;;;5014723;28;20187;-49
2023/01/27 07:16:51;;;;;;;2.45;2.22;;;;;;;;;;5017689;28;20560;-49
2023/01/27 07:19:17;;;;;;;3.88;2.53;;;;;;;;;;5009308;28;20767;-49
2023/01/27 07:21:43;;;;;;;2.40;2.20;;;;;;;;;;5016973;28;20180;-49
2023/01/27 07:24:09;;;;;;;4.90;2.45;;;;;;;;;;5016857;28;20514;-49
2023/01/27 07:26:34;;;;;;;2.80;1.83;;;;;;;;;;5014009;28;20227;-49
2023/01/27 07:29:00;;;;;;;2.38;2.13;;;;;;;;;;5017369;28;20504;-49
2023/01/27 07:31:26;;;;;;;2.80;2.35;;;;;;;;;;5013721;28;20223;-49
2023/01/27 07:33:52;;;;;;;3.05;2.15;;;;;;;;;;5016416;28;20507;-49
2023/01/27 07:36:18;;;;;;;2.75;2.33;;;;;;;;;;5013408;28;20223;-49
2023/01/27 07:38:44;;;;;;;3.35;2.20;;;;;;;;;;5016316;28;20571;-49
2023/01/27 07:41:10;;;;;;;4.03;2.10;;;;;;;;;;5008466;28;20192;-49
2023/01/27 07:43:36;;;;;;;3.53;2.17;;;;;;;;;;5011776;28;20191;-49
2023/01/27 07:46:02;;;;;;;3.05;2.25;;;;;;;;;;5008520;28;20188;-49
2023/01/27 07:48:28;;;;;;;2.53;2.33;;;;;;;;;;5014306;28;20232;-49
2023/01/27 07:50:54;;;;;;;2.75;2.15;;;;;;;;;;5005210;28;20189;-49
2023/01/27 07:53:20;;;;;;;2.03;1.80;;;;;;;;;;5011328;28;20500;-49
2023/01/27 07:55:46;;;;;;;3.22;2.33;;;;;;;;;;5003996;28;20553;-49
2023/01/27 07:58:12;;;;;;;2.75;2.10;;;;;;;;;;5005200;28;20196;-49
2023/01/27 08:00:38;;;;;;;3.17;2.28;;;;;;;;;;5005268;28;20177;-49
2023/01/27 08:03:04;;;;;;;3.78;2.50;;;;;;;;;;5006257;28;20215;-49
2023/01/27 08:05:32;;;;;;;2.33;2.10;;;;;;;;;;5009021;28;20195;-49
2023/01/27 08:08:02;;;;;;;5.07;2.40;;;;;;;;;;4998655;28;20436;-49
2023/01/27 08:10:28;;;;;;;2.42;2.10;;;;;;;;;;5008973;28;20272;-49
2023/01/27 08:12:54;;;;;;;3.25;2.08;;;;;;;;;;5005696;28;20287;-49
2023/01/27 08:15:20;;;;;;;3.25;2.38;;;;;;;;;;4996967;28;20185;-49
2023/01/27 08:17:55;;;;;;;2.50;2.05;;;;;;;;;;5009559;28;20208;-49
2023/01/27 08:20:22;;;;;;;2.80;2.33;;;;;;;;;;5010915;28;20456;-48
2023/01/27 08:22:48;;;;;;;3.30;2.45;;;;;;;;;;5008713;28;20254;-48
2023/01/27 08:25:13;;;;;;;2.53;2.20;;;;;;;;;;5014203;28;20490;-48
2023/01/27 08:27:39;;;;;;;2.83;2.40;;;;;;;;;;5007511;28;20200;-49
2023/01/27 08:30:06;;;;;;;3.03;2.42;;;;;;;;;;5012104;28;20201;-49
2023/01/27 08:32:33;;;;;;;3.40;2.58;;;;;;;;;;5015485;28;20508;-49
2023/01/27 08:34:59;;;;;;;2.67;2.38;;;;;;;;;;5005161;28;20193;-49
2023/01/27 08:37:25;;;;;;;3.25;2.20;;;;;;;;;;5003427;28;20201;-49
2023/01/27 08:39:51;;;;;;;2.83;2.22;;;;;;;;;;5014883;28;20177;-49
2023/01/27 08:42:17;;;;;;;3.50;2.58;;;;;;;;;;5007846;28;20193;-49
2023/01/27 08:44:42;;;;;;;3.53;2.08;;;;;;;;;;5016382;28;20191;-49
2023/01/27 08:47:08;;;;;;;2.53;2.30;;;;;;;;;;5016093;28;20231;-49
2023/01/27 08:49:34;;;;;;;2.63;2.25;;;;;;;;;;5016218;28;20211;-49
2023/01/27 08:52:00;;;;;;;2.47;2.10;;;;;;;;;;5013136;28;20251;-49
2023/01/27 08:54:26;;;;;;;3.00;2.60;;;;;;;;;;5012500;28;20216;-49
2023/01/27 08:56:52;;;;;;;3.55;2.50;;;;;;;;;;5014617;28;20184;-49
2023/01/27 08:59:18;;;;;;;3.65;2.35;;;;;;;;;;5013862;28;20536;-49
2023/01/27 09:01:44;;;;;;;2.47;2.28;;;;;;;;;;5014996;28;20480;-49
2023/01/27 09:04:10;;;;;;;2.53;2.33;;;;;;;;;;5007457;28;20266;-49
2023/01/27 09:06:35;;;;;;;2.60;2.15;;;;;;;;;;5013439;28;20199;-49
2023/01/27 09:09:07;;;;;;;2.92;2.38;;;;;;;;;;5013754;28;20224;-49
2023/01/27 09:11:34;;;;;;;2.58;2.30;;;;;;;;;;5012886;28;20446;-49
2023/01/27 09:14:00;;;;;;;2.75;2.30;;;;;;;;;;5008783;28;20292;-49
2023/01/27 09:16:26;;;;;;;3.22;2.45;;;;;;;;;;5002974;28;20331;-49
2023/01/27 09:18:52;;;;;;;3.33;2.33;;;;;;;;;;5010261;28;20649;-49
2023/01/27 09:21:18;;;;;;;2.78;2.35;;;;;;;;;;5004017;28;20264;-49
2023/01/27 09:23:44;;;;;;;2.53;2.28;;;;;;;;;;5006848;28;20317;-49
2023/01/27 09:26:09;;;;;;;2.88;2.45;;;;;;;;;;5012454;28;20218;-49
2023/01/27 09:28:35;;;;;;;2.67;2.40;;;;;;;;;;5006422;28;20224;-49
2023/01/27 09:31:01;;;;;;;2.72;2.30;;;;;;;;;;5009504;28;20188;-49
2023/01/27 09:33:27;;;;;;;3.10;2.50;;;;;;;;;;5014772;28;20235;-49
2023/01/27 09:36:01;;;;;;;2.55;2.35;;;;;;;;;;5015005;28;20602;-49
2023/01/27 09:38:29;;;;;;;3.22;2.50;;;;;;;;;;5011276;28;20185;-49
2023/01/27 09:41:14;;;;;;;3.00;2.60;;;;;;;;;;5014298;28;20197;-49
2023/01/27 09:43:59;;;;;;;3.00;2.30;;;;;;;;;;5011301;28;20231;-49
2023/01/27 09:46:41;;;;;;;3.42;2.55;;;;;;;;;;5001067;28;20523;-49
2023/01/27 09:49:16;;;;;;;3.63;2.67;;;;;;;;;;5007626;28;20188;-49
2023/01/27 09:51:49;;;;;;;3.63;2.97;;;;;;;;;;5010796;28;20815;-49
2023/01/27 09:54:22;;;;;;;3.22;2.50;;;;;;;;;;5014583;28;20441;-48
2023/01/27 09:57:07;;;;;;;3.33;2.63;;;;;;;;;;5009515;28;20212;-48
2023/01/27 09:59:37;;;;;;;2.55;2.35;;;;;;;;;;5013846;28;20180;-48
2023/01/27 10:02:22;;;;;;;2.92;2.60;;;;;;;;;;5010143;28;20271;-48
2023/01/27 10:05:07;;;;;;;2.85;2.63;;;;;;;;;;5009387;28;20192;-48
2023/01/27 10:07:39;;;;;;;2.85;2.47;;;;;;;;;;5012476;28;20242;-48
2023/01/27 10:10:08;;;;;;;3.90;2.70;;;;;;;;;;5007089;28;20199;-48
2023/01/27 10:12:45;;;;;;;3.65;2.42;;;;;;;;;;5014774;28;20287;-48
2023/01/27 10:15:20;;;;;;;2.92;2.45;;;;;;;;;;5014742;28;20188;-48
2023/01/27 10:17:52;;;;;;;3.83;2.83;;;;;;;;;;5011268;28;20637;-48
2023/01/27 10:20:26;;;;;;;3.50;2.88;;;;;;;;;;5005555;28;20192;-48
2023/01/27 10:22:58;;;;;;;3.83;2.90;;;;;;;;;;5001339;28;20458;-48
2023/01/27 10:25:27;;;;;;;3.38;2.80;;;;;;;;;;5006972;28;20576;-48
2023/01/27 10:27:57;;;;;;;3.17;2.63;;;;;;;;;;5003393;28;20473;-48
2023/01/27 10:30:32;;;;;;;3.00;2.53;;;;;;;;;;5004372;28;20191;-49
2023/01/27 10:33:17;;;;;;;3.50;2.85;;;;;;;;;;5008757;28;20219;-49
2023/01/27 10:35:59;;;;;;;2.90;2.60;;;;;;;;;;5020464;28;20176;-49
2023/01/27 10:38:43;;;;;;;3.58;2.67;;;;;;;;;;5021108;28;20176;-49
2023/01/27 10:41:19;;;;;;;3.10;2.50;;;;;;;;;;5014605;28;20181;-49
2023/01/27 10:44:01;;;;;;;3.55;2.85;;;;;;;;;;5009726;28;20221;-49
2023/01/27 10:46:52;;;;;;;3.10;2.63;;;;;;;;;;5016900;28;20180;-49
2023/01/27 10:49:33;;;;;;;2.72;2.40;;;;;;;;;;5014894;28;20296;-49
2023/01/27 10:52:03;;;;;;;2.70;2.40;;;;;;;;;;5008255;28;20626;-49
2023/01/27 10:54:29;;;;;;;3.75;2.95;;;;;;;;;;5016518;28;20577;-49
2023/01/27 10:57:12;;;;;;;3.00;2.70;;;;;;;;;;5014383;28;20195;-49
2023/01/27 10:59:43;;;;;;;3.10;2.63;;;;;;;;;;5019239;28;20188;-49
2023/01/27 11:02:09;;;;;;;3.58;2.78;;;;;;;;;;5014549;28;20192;-49
2023/01/27 11:04:49;;;;;;;3.47;3.17;;;;;;;;;;5019112;28;20250;-48
2023/01/27 11:07:16;;;;;;;3.80;2.72;;;;;;;;;;5008639;28;20211;-48
2023/01/27 11:09:45;;;;;;;3.10;2.80;;;;;;;;;;5019786;28;20240;-48
2023/01/27 11:12:13;;;;;;;4.82;2.95;;;;;;;;;;5015585;28;20247;-47
2023/01/27 11:14:45;;;;;;;3.40;2.58;;;;;;;;;;5011641;28;20243;-48
2023/01/27 11:17:31;;;;;;;2.97;2.33;;;;;;;;;;5015274;28;20643;-48
2023/01/27 11:20:00;;;;;;;3.28;2.70;;;;;;;;;;5010382;28;20199;-48
2023/01/27 11:22:28;;;;;;;3.25;2.58;;;;;;;;;;5005268;28;20462;-48
2023/01/27 11:25:12;;;;;;;3.40;2.50;;;;;;;;;;5014171;28;20188;-48
2023/01/27 11:28:00;;;;;;;4.20;3.08;;;;;;;;;;5019980;28;20246;-48
2023/01/27 11:30:31;;;;;;;2.80;2.50;;;;;;;;;;5016042;28;20196;-48
2023/01/27 11:33:04;;;;;;;3.55;2.42;;;;;;;;;;5014690;28;20298;-48
2023/01/27 11:35:30;;;;;;;2.50;2.13;;;;;;;;;;5018383;28;20213;-48
2023/01/27 11:37:56;;;;;;;2.78;2.40;;;;;;;;;;5018918;28;20200;-49
2023/01/27 11:40:28;;;;;;;2.85;2.55;;;;;;;;;;5017909;28;20192;-49
2023/01/27 11:42:56;;;;;;;2.58;2.33;;;;;;;;;;5010320;28;20195;-49
2023/01/27 11:45:22;;;;;;;3.00;2.30;;;;;;;;;;5016795;28;20181;-49
2023/01/27 11:47:50;;;;;;;2.50;2.30;;;;;;;;;;5016029;28;20433;-49
2023/01/27 11:50:19;;;;;;;2.78;2.42;;;;;;;;;;5012887;28;20192;-49
2023/01/27 11:52:48;;;;;;;2.75;2.30;;;;;;;;;;5014600;28;20203;-49
2023/01/27 11:55:13;;;;;;;2.92;2.47;;;;;;;;;;5010381;28;20185;-49
2023/01/27 11:57:45;;;;;;;2.40;2.15;;;;;;;;;;5015411;28;20506;-48
2023/01/27 12:00:11;;;;;;;2.30;2.10;;;;;;;;;;5010219;28;20200;-48
2023/01/27 12:02:56;;;;;;;2.55;2.35;;;;;;;;;;5006942;28;20590;-48
2023/01/27 12:05:26;;;;;;;2.38;2.10;;;;;;;;;;5006882;28;20190;-48
2023/01/27 12:07:56;;;;;;;2.63;2.20;;;;;;;;;;5016427;28;20197;-48
2023/01/27 12:10:33;;;;;;;2.38;2.17;;;;;;;;;;5007686;28;20209;-48
2023/01/27 12:13:19;;;;;;;2.42;2.08;;;;;;;;;;5008175;28;20224;-48
2023/01/27 12:15:52;;;;;;;3.10;2.38;;;;;;;;;;5011446;28;20530;-48
2023/01/27 12:18:18;;;;;;;2.63;2.23;;;;;;;;;;5010579;28;20242;-48
2023/01/27 12:20:45;;;;;;;3.17;2.75;;;;;;;;;;5001890;28;20196;-49
2023/01/27 12:23:19;;;;;;;2.65;2.20;;;;;;;;;;5013733;28;20192;-48
2023/01/27 12:25:47;;;;;;;2.70;2.50;;;;;;;;;;5008395;28;20267;-48
2023/01/27 12:28:20;;;;;;;2.97;2.58;;;;;;;;;;5010148;28;20199;-48
2023/01/27 12:30:46;;;;;;;2.88;2.45;;;;;;;;;;5009302;28;20192;-48
2023/01/27 12:33:14;;;;;;;2.47;2.20;;;;;;;;;;5014983;28;20642;-48
2023/01/27 12:35:40;;;;;;;2.95;2.50;;;;;;;;;;5016285;28;20227;-48
2023/01/27 12:38:26;;;;;;;2.83;2.17;;;;;;;;;;5016023;28;20280;-48
2023/01/27 12:41:03;;;;;;;2.97;2.30;;;;;;;;;;5010155;28;20350;-48
2023/01/27 12:43:29;;;;;;;2.72;2.50;;;;;;;;;;5012402;28;20180;-48
2023/01/27 12:46:10;;;;;;;2.30;2.10;;;;;;;;;;5007265;28;20238;-48
2023/01/27 12:48:44;;;;;;;2.50;2.15;;;;;;;;;;5010329;28;20262;-48
2023/01/27 12:51:18;;;;;;;3.00;2.35;;;;;;;;;;5010013;28;20192;-49
2023/01/27 12:53:44;;;;;;;3.83;2.25;;;;;;;;;;5011149;28;20207;-48
2023/01/27 12:56:12;;;;;;;2.85;2.28;;;;;;;;;;5010209;28;20185;-48
2023/01/27 12:58:57;;;;;;;2.70;2.30;;;;;;;;;;5012890;28;20575;-48
2023/01/27 13:01:29;;;;;;;2.53;2.33;;;;;;;;;;5011400;28;20200;-48
2023/01/27 13:03:57;;;;;;;2.65;2.10;;;;;;;;;;5010359;28;20873;-48
2023/01/27 13:06:28;;;;;;;2.63;2.08;;;;;;;;;;5013556;28;20192;-48
2023/01/27 13:08:54;;;;;;;3.92;2.60;;;;;;;;;;5023338;28;20188;-48
2023/01/27 13:11:30;;;;;;;2.38;2.17;;;;;;;;;;5011397;28;20591;-48
2023/01/27 13:13:56;;;;;;;2.88;2.38;;;;;;;;;;5011887;28;20222;-48
2023/01/27 13:16:22;;;;;;;2.60;2.35;;;;;;;;;;5007538;28;20188;-48
2023/01/27 13:18:56;;;;;;;2.55;2.33;;;;;;;;;;5010020;28;20298;-48
2023/01/27 13:21:24;;;;;;;3.17;2.65;;;;;;;;;;5012344;28;20739;-48
2023/01/27 13:23:52;;;;;;;2.55;2.03;;;;;;;;;;5010282;28;20184;-48
2023/01/27 13:26:20;;;;;;;3.65;2.30;;;;;;;;;;5013307;28;20204;-48
2023/01/27 13:28:46;;;;;;;2.80;2.50;;;;;;;;;;5009877;28;20185;-48
2023/01/27 13:31:18;;;;;;;2.63;2.33;;;;;;;;;;5008878;28;20211;-48
2023/01/27 13:33:44;;;;;;;2.25;2.00;;;;;;;;;;5011423;28;20239;-48
2023/01/27 13:36:22;;;;;;;2.42;2.22;;;;;;;;;;5008390;28;20294;-48
2023/01/27 13:38:55;;;;;;;2.88;2.33;;;;;;;;;;5014239;28;20607;-48
2023/01/27 13:41:29;;;;;;;2.30;2.10;;;;;;;;;;5014552;28;20192;-48
2023/01/27 13:44:00;;;;;;;3.65;2.35;;;;;;;;;;5004361;28;20203;-48
2023/01/27 13:46:31;;;;;;;2.75;2.30;;;;;;;;;;5014210;28;20192;-48
2023/01/27 13:48:59;;;;;;;2.58;2.28;;;;;;;;;;5007998;28;20247;-48
2023/01/27 13:51:28;;;;;;;2.75;2.50;;;;;;;;;;5022333;28;20181;-48
2023/01/27 13:53:59;;;;;;;3.67;2.45;;;;;;;;;;5006822;28;20239;-48
2023/01/27 13:56:49;;;;;;;4.43;2.47;;;;;;;;;;5011800;28;20192;-48
2023/01/27 13:59:24;;;;;;;3.50;2.30;;;;;;;;;;5003338;28;20185;-49
2023/01/27 14:01:58;;;;;;;3.55;2.20;;;;;;;;;;5011393;28;20564;-48
2023/01/27 14:04:43;;;;;;;2.55;2.25;;;;;;;;;;5005420;28;20180;-48
2023/01/27 14:07:17;;;;;;;2.22;2.03;;;;;;;;;;5006803;28;20216;-48
2023/01/27 14:09:46;;;;;;;2.72;2.10;;;;;;;;;;5008511;28;20188;-48
2023/01/27 14:12:15;;;;;;;2.65;2.13;;;;;;;;;;5004233;28;20255;-48
2023/01/27 14:14:58;;;;;;;2.63;2.30;;;;;;;;;;5005460;28;20212;-48
2023/01/27 14:17:27;;;;;;;2.50;2.10;;;;;;;;;;5014014;28;20188;-48
2023/01/27 14:20:00;;;;;;;2.30;2.10;;;;;;;;;;5006659;28;20602;-48
2023/01/27 14:22:45;;;;;;;2.25;2.05;;;;;;;;;;5014493;28;20480;-48
2023/01/27 14:25:40;;;;;;;2.55;2.20;;;;;;;;;;5003099;28;20284;-48
2023/01/27 14:28:14;;;;;;;3.00;2.50;;;;;;;;;;5004996;28;20568;-48
2023/01/27 14:30:47;;;;;;;4.45;2.30;;;;;;;;;;5005697;28;20463;-48
2023/01/27 14:33:20;;;;;;;5.68;2.25;;;;;;;;;;5009135;28;20204;-49
2023/01/27 14:35:57;;;;;;;4.22;2.30;;;;;;;;;;5012620;28;20218;-49
2023/01/27 14:38:38;;;;;;;3.50;2.15;;;;;;;;;;5014283;28;20180;-49
2023/01/27 14:41:19;;;;;;;4.15;2.30;;;;;;;;;;5010052;28;20603;-49
2023/01/27 14:43:45;;;;;;;3.72;2.30;;;;;;;;;;5008662;28;20188;-49
2023/01/27 14:46:23;;;;;;;3.33;2.35;;;;;;;;;;5007092;28;20196;-49
2023/01/27 14:48:58;;;;;;;4.53;2.30;;;;;;;;;;5006947;28;20584;-49
2023/01/27 14:51:49;;;;;;;3.35;1.80;;;;;;;;;;5008398;28;20180;-49
2023/01/27 14:54:28;;;;;;;6.00;2.20;;;;;;;;;;4988593;28;20580;-49
2023/01/27 14:57:01;;;;;;;2.50;2.30;;;;;;;;;;5005205;28;20196;-49
2023/01/27 14:59:36;;;;;;;8.75;2.15;;;;;;;;;;5006471;28;20181;-49
2023/01/27 15:02:21;;;;;;;3.80;2.42;;;;;;;;;;5008216;28;20198;-49
2023/01/27 15:05:01;;;;;;;3.80;2.25;;;;;;;;;;5007359;28;20224;-49
2023/01/27 15:07:27;;;;;;;6.15;2.00;;;;;;;;;;5011736;28;20199;-49
2023/01/27 15:10:06;;;;;;;5.60;2.30;;;;;;;;;;5013494;28;20556;-49
2023/01/27 15:12:43;;;;;;;3.28;2.55;;;;;;;;;;5011640;28;20208;-49
2023/01/27 15:15:18;;;;;;;5.43;2.13;;;;;;;;;;5007443;28;20180;-49
2023/01/27 15:17:59;;;;;;;4.63;2.35;;;;;;;;;;5010416;28;20181;-49
2023/01/27 15:20:24;;;;;;;6.63;2.50;;;;;;;;;;5012438;28;20188;-49
2023/01/27 15:23:06;;;;;;;4.00;2.45;;;;;;;;;;5016722;28;20196;-49
2023/01/27 15:25:35;;;;;;;6.05;2.15;;;;;;;;;;5019898;28;20208;-49
2023/01/27 15:28:02;;;;;;;3.00;2.25;;;;;;;;;;5016125;28;20211;-49
2023/01/27 15:30:30;;;;;;;3.17;2.13;;;;;;;;;;5017153;28;20452;-49
2023/01/27 15:32:55;;;;;;;6.45;2.10;;;;;;;;;;5014063;28;20219;-49
2023/01/27 15:35:22;;;;;;;5.43;2.35;;;;;;;;;;5007607;28;20189;-48